Time;durP1;ratioP1;P1;durP2;ratioP2;P2;SDS_P1;SDS_P2;PMS_P1;PMS_P2;Temp;Humidity;BMP_temperature;BMP_pressure;BME280_temperature;BME280_humidity;BME280_pressure;Samples;Min_cycle;Max_cycle;Signal;HPM_P1;HPM_P2
2023/10/17 00:02:00;;;;;;;0.20;0.20;;;;;;;17.28;100.00;99928.44;5053817;28;20033;-90
2023/10/17 00:04:32;;;;;;;0.20;0.20;;;;;;;17.36;100.00;99954.47;5066260;28;20102;-89
2023/10/17 00:06:58;;;;;;;0.20;0.20;;;;;;;17.55;100.00;99959.53;5073622;28;20480;-90
2023/10/17 00:09:32;;;;;;;0.20;0.20;;;;;;;17.52;100.00;99954.72;5073590;28;20290;-90
2023/10/17 00:11:59;;;;;;;0.20;0.20;;;;;;;17.50;100.00;99940.28;5074680;28;20024;-90
2023/10/17 00:14:35;;;;;;;0.20;0.20;;;;;;;17.67;100.00;99963.84;5074836;28;20036;-90
2023/10/17 00:17:03;;;;;;;0.20;0.20;;;;;;;17.63;100.00;99960.25;5073547;28;20033;-90
2023/10/17 00:19:32;;;;;;;0.20;0.20;;;;;;;17.49;100.00;99938.69;5074747;28;20506;-90
2023/10/17 00:22:04;;;;;;;0.20;0.20;;;;;;;17.60;100.00;99966.72;5073714;28;20028;-90
2023/10/17 00:24:30;;;;;;;0.20;0.20;;;;;;;17.64;100.00;99957.03;5073643;28;20031;-90
2023/10/17 00:26:56;;;;;;;0.20;0.20;;;;;;;17.53;100.00;99936.66;5073476;28;20028;-91
2023/10/17 00:29:22;;;;;;;0.20;0.20;;;;;;;17.42;100.00;99927.53;5073592;28;20090;-89
2023/10/17 00:31:47;;;;;;;0.20;0.20;;;;;;;17.21;100.00;99901.19;5074490;28;20032;-91
2023/10/17 00:34:13;;;;;;;0.20;0.20;;;;;;;17.37;100.00;99913.91;5062374;28;20507;-90
2023/10/17 00:37:00;;;;;;;0.20;0.20;;;;;;;17.52;100.00;99932.22;5054032;28;20025;-90
2023/10/17 00:39:29;;;;;;;0.20;0.20;;;;;;;17.42;100.00;99921.91;5053201;28;20036;-89
2023/10/17 00:44:41;;;;;;;0.20;0.20;;;;;;;17.44;100.00;99908.22;5054572;28;20095;-89
2023/10/17 00:47:29;;;;;;;0.20;0.20;;;;;;;17.33;100.00;99904.69;5052931;28;20040;-90
2023/10/17 00:49:55;;;;;;;0.20;0.20;;;;;;;17.14;100.00;99884.38;5052497;28;20029;-90
2023/10/17 00:52:24;;;;;;;0.20;0.20;;;;;;;17.26;100.00;99906.38;5053273;28;20033;-90
2023/10/17 00:54:51;;;;;;;0.20;0.20;;;;;;;17.22;100.00;99897.16;5052747;28;20036;-90
2023/10/17 00:57:17;;;;;;;0.25;0.25;;;;;;;17.25;100.00;99898.31;5052622;28;20029;-90
2023/10/17 00:59:56;;;;;;;0.20;0.20;;;;;;;17.03;100.00;99894.91;5052827;28;20057;-91
2023/10/17 01:02:23;;;;;;;0.20;0.20;;;;;;;17.27;100.00;99905.16;5052878;28;20036;-91
2023/10/17 01:04:52;;;;;;;0.20;0.20;;;;;;;17.14;100.00;99880.75;5070193;28;20375;-91
2023/10/17 01:07:30;;;;;;;0.20;0.20;;;;;;;17.04;100.00;99871.19;5072884;28;20119;-90
2023/10/17 01:10:00;;;;;;;0.20;0.20;;;;;;;16.98;100.00;99886.91;5073624;28;20025;-89
2023/10/17 01:12:27;;;;;;;0.20;0.20;;;;;;;16.96;100.00;99869.69;5072505;28;20025;-89
2023/10/17 01:14:54;;;;;;;0.20;0.20;;;;;;;16.93;100.00;99867.69;5072225;28;20036;-90
2023/10/17 01:17:23;;;;;;;0.20;0.20;;;;;;;16.86;100.00;99853.69;5072222;28;20063;-90
2023/10/17 01:19:53;;;;;;;0.20;0.20;;;;;;;16.87;100.00;99846.84;5071782;28;20508;-89
2023/10/17 01:22:20;;;;;;;0.20;0.20;;;;;;;16.91;100.00;99878.53;5072219;28;20020;-90
2023/10/17 01:24:45;;;;;;;0.20;0.20;;;;;;;16.69;100.00;99853.38;5072169;28;20025;-89
2023/10/17 01:27:13;;;;;;;0.20;0.20;;;;;;;16.89;100.00;99861.31;5072010;28;20023;-89
2023/10/17 01:29:41;;;;;;;0.20;0.20;;;;;;;16.86;100.00;99846.06;5051200;28;20099;-90
2023/10/17 01:32:09;;;;;;;0.20;0.20;;;;;;;16.62;100.00;99830.97;5033423;28;20026;-90
2023/10/17 01:34:36;;;;;;;0.20;0.20;;;;;;;16.67;100.00;99855.81;5032310;28;20030;-89
2023/10/17 01:37:03;;;;;;;0.25;0.25;;;;;;;16.70;100.00;99852.19;5032094;28;20033;-89
2023/10/17 01:39:29;;;;;;;0.30;0.30;;;;;;;16.63;100.00;99846.63;5031706;28;20017;-90
2023/10/17 01:41:55;;;;;;;0.20;0.20;;;;;;;16.53;100.00;99816.59;5032043;28;20036;-89
2023/10/17 01:44:20;;;;;;;0.20;0.20;;;;;;;16.52;100.00;99831.84;5033030;28;20029;-89
2023/10/17 01:46:46;;;;;;;0.20;0.20;;;;;;;16.23;100.00;99848.84;5033781;28;20029;-90
2023/10/17 01:49:12;;;;;;;0.20;0.20;;;;;;;16.36;100.00;99857.63;5032314;28;20026;-89
2023/10/17 01:51:48;;;;;;;0.20;0.20;;;;;;;16.02;100.00;99831.34;5033644;28;20091;-89
2023/10/17 01:54:30;;;;;;;0.20;0.20;;;;;;;15.96;100.00;99844.97;5040962;28;20052;-87
2023/10/17 02:06:17;;;;;;;0.20;0.20;;;;;;;15.61;100.00;99824.28;5158443;23;20049;-88
2023/10/17 02:08:46;;;;;;;0.28;0.28;;;;;;;15.81;100.00;99843.44;5053018;28;20033;-89
2023/10/17 02:11:14;;;;;;;0.20;0.20;;;;;;;15.76;100.00;99821.41;5051848;28;20440;-89
2023/10/17 02:13:42;;;;;;;0.20;0.20;;;;;;;15.90;100.00;99841.00;5052004;28;20040;-91
2023/10/17 02:16:12;;;;;;;0.20;0.20;;;;;;;15.94;100.00;99850.22;5053187;28;20024;-91
2023/10/17 02:18:38;;;;;;;0.20;0.20;;;;;;;15.83;100.00;99824.22;5051570;28;20025;-89
2023/10/17 02:21:07;;;;;;;0.30;0.30;;;;;;;16.01;100.00;99835.34;5050874;28;20021;-89
2023/10/17 02:23:40;;;;;;;0.20;0.20;;;;;;;15.87;100.00;99827.78;5050729;28;20132;-89
2023/10/17 02:26:12;;;;;;;0.20;0.20;;;;;;;16.09;100.00;99848.94;5051648;28;20033;-90
2023/10/17 02:28:44;;;;;;;0.20;0.20;;;;;;;15.71;100.00;99836.66;5051345;28;20096;-90
2023/10/17 02:31:15;;;;;;;0.20;0.20;;;;;;;15.88;100.00;99840.63;5051701;28;20025;-89
2023/10/17 02:36:26;;;;;;;0.20;0.20;;;;;;;15.97;100.00;99833.34;5053321;28;20041;-89
2023/10/17 02:38:52;;;;;;;0.20;0.20;;;;;;;15.82;100.00;99864.66;5051443;28;20028;-89
2023/10/17 02:41:22;;;;;;;0.20;0.20;;;;;;;15.91;100.00;99873.47;5051299;28;20029;-89
2023/10/17 02:43:55;;;;;;;0.20;0.20;;;;;;;15.75;100.00;99867.50;5048510;28;20036;-91
2023/10/17 03:01:27;;;;;;;0.20;0.20;;;;;;;15.25;100.00;99850.78;5076510;28;20124;-90
2023/10/17 03:03:53;;;;;;;0.30;0.30;;;;;;;15.25;100.00;99867.59;5058143;28;20736;-89
2023/10/17 03:06:19;;;;;;;0.20;0.20;;;;;;;15.26;100.00;99852.38;5058134;28;20046;-89
2023/10/17 03:08:51;;;;;;;0.20;0.20;;;;;;;15.14;100.00;99834.78;5058121;28;20086;-90
2023/10/17 03:11:35;;;;;;;0.20;0.20;;;;;;;15.23;100.00;99841.97;5058164;28;20032;-90
2023/10/17 03:14:12;;;;;;;0.20;0.20;;;;;;;15.25;100.00;99850.78;5058167;28;20024;-89
2023/10/17 03:16:40;;;;;;;0.20;0.20;;;;;;;15.20;100.00;99847.19;5075160;28;20072;-90
2023/10/17 03:19:12;;;;;;;0.20;0.20;;;;;;;15.25;100.00;99845.19;5059680;28;20013;-88
2023/10/17 03:30:29;;;;;;;0.20;0.20;;;;;;;15.33;100.00;99846.75;5110771;22;20072;-88
2023/10/17 03:33:05;;;;;;;0.20;0.20;;;;;;;15.20;100.00;99821.97;5041123;28;20117;-91
2023/10/17 03:35:35;;;;;;;0.20;0.20;;;;;;;15.20;100.00;99810.75;5074514;28;20031;-91
2023/10/17 03:38:01;;;;;;;0.20;0.20;;;;;;;15.29;100.00;99817.94;5074401;28;20321;-91
2023/10/17 03:42:55;;;;;;;0.20;0.20;;;;;;;15.27;100.00;99817.53;5074819;28;20139;-90
2023/10/17 03:47:53;;;;;;;0.20;0.20;;;;;;;15.32;100.00;99811.53;5074916;28;20043;-89
2023/10/17 03:50:31;;;;;;;0.20;0.20;;;;;;;15.41;100.00;99809.09;5057139;28;20033;-89
2023/10/17 03:53:07;;;;;;;0.20;0.20;;;;;;;15.44;100.00;99794.25;5056891;28;20032;-90
2023/10/17 03:55:42;;;;;;;0.20;0.20;;;;;;;15.50;100.00;99784.25;5057097;28;20027;-89
2023/10/17 03:58:18;;;;;;;0.20;0.20;;;;;;;15.41;100.00;99781.06;5057306;28;20021;-90
2023/10/17 04:00:45;;;;;;;0.20;0.20;;;;;;;15.53;100.00;99799.44;5057144;28;20024;-90
2023/10/17 04:03:19;;;;;;;0.20;0.20;;;;;;;15.42;100.00;99777.06;5056711;28;20041;-90
2023/10/17 04:05:49;;;;;;;0.20;0.20;;;;;;;15.30;100.00;99777.50;5057167;28;20029;-90
2023/10/17 04:08:17;;;;;;;0.20;0.20;;;;;;;15.20;100.00;99759.50;5057116;28;20021;-89
2023/10/17 04:22:22;;;;;;;0.20;0.20;;;;;;;15.31;100.00;99765.88;5121221;22;20053;-90
2023/10/17 04:24:49;;;;;;;0.20;0.20;;;;;;;15.60;100.00;99772.16;5058236;28;20033;-91
2023/10/17 04:29:49;;;;;;;0.20;0.20;;;;;;;15.58;100.00;99763.38;5075951;28;20032;-90
2023/10/17 04:32:15;;;;;;;0.20;0.20;;;;;;;15.69;100.00;99757.75;5056361;28;20040;-91
2023/10/17 04:34:47;;;;;;;0.20;0.20;;;;;;;15.62;100.00;99764.16;5056778;28;20013;-91
2023/10/17 04:43:43;;;;;;;0.20;0.20;;;;;;;15.46;100.00;99763.84;5117486;22;20064;-87
2023/10/17 04:45:58;;;;;;;0.20;0.20;;;;;;;15.44;100.00;99741.00;5076457;28;20368;-86
2023/10/17 07:07:03;;;;;;;0.20;0.20;;;;;;;14.76;100.00;99933.63;5014109;23;20058;-87
2023/10/17 07:09:37;;;;;;;0.20;0.20;;;;;;;15.09;100.00;99949.28;4961382;28;20046;-88
2023/10/17 07:12:04;;;;;;;0.20;0.20;;;;;;;14.97;100.00;99936.47;4960482;28;20502;-89
2023/10/17 07:14:29;;;;;;;0.20;0.20;;;;;;;15.39;100.00;99934.84;4977605;28;20042;-89
2023/10/17 07:17:00;;;;;;;0.20;0.20;;;;;;;15.71;100.00;99929.22;4959648;28;20479;-89
2023/10/17 07:24:25;;;;;;;0.20;0.20;;;;;;;17.15;100.00;99964.69;4986644;28;20082;-87
2023/10/17 07:26:52;;;;;;;0.20;0.20;;;;;;;17.15;100.00;99970.31;4989402;28;20038;-87
2023/10/17 07:29:22;;;;;;;0.20;0.20;;;;;;;17.06;100.00;99950.31;4970822;28;20031;-88
2023/10/17 07:31:55;;;;;;;0.20;0.20;;;;;;;18.03;100.00;99956.66;4963065;28;20030;-87
2023/10/17 07:34:24;;;;;;;0.20;0.20;;;;;;;19.48;100.00;99974.81;4969089;28;20066;-88
2023/10/17 07:39:37;;;;;;;0.20;0.20;;;;;;;20.55;85.74;99960.72;4975280;28;20454;-86
2023/10/17 07:42:04;;;;;;;0.20;0.20;;;;;;;21.36;85.32;99975.06;4953822;29;20042;-87
2023/10/17 07:44:34;;;;;;;0.20;0.20;;;;;;;21.74;80.33;99988.69;4953764;29;20070;-86
2023/10/17 07:49:35;;;;;;;0.20;0.20;;;;;;;21.75;79.00;99984.59;4954773;29;20395;-86
2023/10/17 07:52:03;;;;;;;0.20;0.20;;;;;;;22.54;75.94;99993.81;4955025;29;20066;-86
2023/10/17 07:54:29;;;;;;;0.20;0.20;;;;;;;22.94;71.05;99997.88;4937443;29;20029;-86
2023/10/17 07:56:55;;;;;;;0.20;0.20;;;;;;;23.10;70.44;100001.88;4954861;29;20027;-85
2023/10/17 07:59:30;;;;;;;0.20;0.20;;;;;;;23.55;68.02;99993.13;4954492;29;20455;-85
2023/10/17 08:01:59;;;;;;;0.20;0.20;;;;;;;23.71;68.08;99995.03;4937451;29;20399;-85
2023/10/17 08:04:30;;;;;;;0.20;0.20;;;;;;;23.73;66.11;99984.00;4953168;28;20035;-86
2023/10/17 08:06:56;;;;;;;0.15;0.15;;;;;;;24.05;64.86;100003.56;4954563;29;20043;-85
2023/10/17 08:11:51;;;;;;;0.20;0.20;;;;;;;24.01;65.87;100002.09;4954369;28;20035;-86
2023/10/17 08:14:19;;;;;;;0.20;0.20;;;;;;;24.72;63.74;100021.50;4954353;29;20102;-85
2023/10/17 08:16:48;;;;;;;0.20;0.20;;;;;;;24.31;63.66;99975.03;4954620;29;20108;-86
2023/10/17 08:19:14;;;;;;;0.20;0.20;;;;;;;24.29;61.72;100023.84;4953532;29;20114;-84
2023/10/17 08:24:45;;;;;;;0.20;0.20;;;;;;;24.76;61.57;100016.47;4954370;29;20047;-85
2023/10/17 08:27:13;;;;;;;0.20;0.20;;;;;;;24.72;60.93;100027.19;4953476;29;20278;-85
2023/10/17 08:29:48;;;;;;;0.20;0.20;;;;;;;23.82;64.54;100023.09;4954525;29;20117;-85
2023/10/17 08:34:50;;;;;;;0.17;0.17;;;;;;;24.09;65.29;100011.19;4954405;29;20043;-85
2023/10/17 08:37:28;;;;;;;0.20;0.20;;;;;;;24.53;63.54;100032.75;4954047;29;20027;-86
2023/10/17 08:39:54;;;;;;;0.20;0.20;;;;;;;23.86;61.41;100038.72;4936643;29;20031;-85
2023/10/17 08:42:30;;;;;;;0.20;0.20;;;;;;;24.07;62.29;100020.16;4952584;29;20034;-85
2023/10/17 08:44:57;;;;;;;0.20;0.20;;;;;;;24.14;61.65;100044.72;4953591;29;20031;-85
2023/10/17 08:47:29;;;;;;;0.20;0.20;;;;;;;23.23;62.13;100017.66;4952466;29;20038;-85
2023/10/17 08:49:55;;;;;;;0.10;0.10;;;;;;;24.32;57.43;100033.50;4952500;29;20035;-85
2023/10/17 08:52:28;;;;;;;0.20;0.20;;;;;;;24.41;55.57;100047.81;4955026;28;20548;-85
2023/10/17 08:54:56;;;;;;;0.20;0.20;;;;;;;24.72;54.31;100049.97;4975203;28;20482;-85
2023/10/17 08:57:23;;;;;;;0.20;0.20;;;;;;;24.39;55.59;100033.25;4974718;28;20037;-86
2023/10/17 09:05:27;;;;;;;0.20;0.20;;;;;;;23.36;58.36;100048.06;4992397;28;20116;-87
2023/10/17 09:07:56;;;;;;;0.20;0.20;;;;;;;22.64;61.29;100043.75;4974683;28;20050;-88
2023/10/17 09:10:31;;;;;;;0.20;0.20;;;;;;;23.14;58.43;100036.59;4959686;28;20058;-87
2023/10/17 09:16:48;;;;;;;0.20;0.20;;;;;;;22.70;59.09;100024.94;4974171;28;20098;-86
2023/10/17 09:18:40;;;;;;;0.20;0.20;;;;;;;23.05;58.33;100039.31;4956816;28;20030;-87
2023/10/17 09:21:06;;;;;;;0.20;0.20;;;;;;;23.60;57.02;100051.38;4959363;28;20023;-87
2023/10/17 09:23:32;;;;;;;0.20;0.20;;;;;;;23.00;56.58;100049.97;4974032;28;20030;-88
2023/10/17 09:26:00;;;;;;;0.20;0.20;;;;;;;23.17;57.04;100041.34;4956314;28;20035;-87
2023/10/17 09:28:28;;;;;;;0.20;0.20;;;;;;;22.87;60.58;100045.50;4955400;28;20035;-89
2023/10/17 09:31:12;;;;;;;0.20;0.20;;;;;;;23.13;56.39;100023.66;4955727;28;20517;-87
2023/10/17 09:33:45;;;;;;;0.20;0.20;;;;;;;23.71;53.94;100034.81;4954962;28;20442;-87
2023/10/17 09:36:13;;;;;;;0.20;0.20;;;;;;;23.70;55.89;100038.88;4955921;28;20122;-88
2023/10/17 09:38:45;;;;;;;0.20;0.20;;;;;;;23.82;53.73;100051.50;4955104;28;20602;-88
2023/10/17 09:41:19;;;;;;;0.20;0.20;;;;;;;23.54;55.50;100056.81;4955677;28;20027;-87
2023/10/17 09:43:46;;;;;;;0.20;0.20;;;;;;;23.71;54.39;100051.84;4956148;28;20148;-88
2023/10/17 09:46:13;;;;;;;0.20;0.20;;;;;;;24.11;51.94;100062.66;4988603;28;20387;-87
2023/10/17 09:48:44;;;;;;;0.20;0.20;;;;;;;24.01;52.42;100056.09;4991397;28;20136;-87
2023/10/17 09:51:14;;;;;;;0.20;0.20;;;;;;;23.84;53.10;100037.63;4974154;28;20026;-87
2023/10/17 09:53:41;;;;;;;0.20;0.20;;;;;;;24.85;50.71;100030.75;4973825;28;20027;-86
2023/10/17 09:56:12;;;;;;;0.20;0.20;;;;;;;24.51;49.72;100018.19;4974085;28;20504;-87
2023/10/17 09:58:47;;;;;;;0.20;0.20;;;;;;;24.77;49.68;100049.38;4974326;28;20069;-86
2023/10/17 10:01:17;;;;;;;0.20;0.20;;;;;;;23.27;52.23;100034.56;4974381;28;20486;-87
2023/10/17 10:03:47;;;;;;;0.20;0.20;;;;;;;23.95;51.63;100043.72;4975512;28;20077;-87
2023/10/17 10:06:21;;;;;;;0.20;0.20;;;;;;;24.19;51.19;100055.50;4973975;28;20133;-87
2023/10/17 10:08:47;;;;;;;0.20;0.20;;;;;;;23.27;52.43;100011.84;4973895;28;20039;-87
2023/10/17 10:11:12;;;;;;;0.20;0.20;;;;;;;24.09;49.98;100039.59;4975832;28;20247;-87
2023/10/17 10:14:02;;;;;;;0.20;0.20;;;;;;;24.05;51.07;100053.94;4995471;28;20030;-87
2023/10/17 10:16:54;;;;;;;0.20;0.20;;;;;;;24.13;50.69;100038.25;4978000;28;20053;-87
2023/10/17 10:19:39;;;;;;;0.20;0.20;;;;;;;23.72;51.41;100037.19;4978138;28;20022;-87
2023/10/17 10:22:05;;;;;;;0.20;0.20;;;;;;;23.85;51.04;100036.34;4995525;28;20022;-87
2023/10/17 10:24:32;;;;;;;0.20;0.20;;;;;;;23.51;51.19;100040.69;4977913;28;20034;-87
2023/10/17 10:27:10;;;;;;;0.20;0.20;;;;;;;23.30;51.67;100045.00;4978553;28;20421;-87
2023/10/17 10:29:36;;;;;;;0.20;0.20;;;;;;;23.56;49.62;100040.13;4978618;28;20030;-88
2023/10/17 10:32:07;;;;;;;0.20;0.20;;;;;;;23.43;50.47;100031.59;4995342;28;20037;-87
2023/10/17 10:34:37;;;;;;;0.20;0.20;;;;;;;24.13;50.36;100046.75;4995122;28;20062;-86
2023/10/17 10:37:13;;;;;;;0.20;0.20;;;;;;;24.48;49.97;100036.19;4977450;28;20034;-87
2023/10/17 10:39:38;;;;;;;0.20;0.20;;;;;;;24.31;50.05;100046.13;4977546;28;20051;-86
2023/10/17 10:42:07;;;;;;;0.20;0.20;;;;;;;24.51;49.69;100009.66;4977402;28;20052;-87
2023/10/17 10:44:42;;;;;;;0.20;0.20;;;;;;;24.63;48.16;100015.75;4977429;28;20046;-87
2023/10/17 10:47:07;;;;;;;0.20;0.20;;;;;;;24.56;48.76;100026.16;4977377;28;20026;-87
2023/10/17 10:49:33;;;;;;;0.20;0.20;;;;;;;24.21;49.09;100028.19;4977315;28;20442;-86
2023/10/17 10:51:59;;;;;;;0.20;0.20;;;;;;;24.40;48.94;100023.50;4995054;28;20550;-87
2023/10/17 10:54:27;;;;;;;0.20;0.20;;;;;;;24.61;47.23;100024.75;4977565;28;20069;-87
2023/10/17 10:56:53;;;;;;;0.20;0.20;;;;;;;24.67;48.31;100031.44;4977352;28;20447;-87
2023/10/17 10:59:22;;;;;;;0.20;0.20;;;;;;;24.48;47.72;100024.81;4977210;28;20022;-87
2023/10/17 11:01:48;;;;;;;0.20;0.20;;;;;;;24.30;49.45;100018.97;4975843;28;20227;-84
2023/10/17 11:04:14;;;;;;;0.20;0.20;;;;;;;23.99;48.62;99994.06;4978783;28;20041;-87
2023/10/17 11:06:40;;;;;;;0.20;0.20;;;;;;;24.24;48.41;100015.13;4977845;28;20038;-88
2023/10/17 11:09:09;;;;;;;0.20;0.20;;;;;;;24.52;48.52;100011.25;4979355;28;20026;-87
2023/10/17 11:11:45;;;;;;;0.20;0.20;;;;;;;23.45;49.84;99983.69;4977066;28;20018;-88
2023/10/17 11:14:16;;;;;;;0.20;0.20;;;;;;;22.97;53.81;100007.53;4977392;28;20065;-89
2023/10/17 11:16:42;;;;;;;0.20;0.20;;;;;;;22.69;53.76;100000.63;4976292;28;20129;-89
2023/10/17 11:19:19;;;;;;;0.20;0.20;;;;;;;22.65;54.11;100002.81;4938716;29;20134;-90
2023/10/17 11:21:52;;;;;;;0.20;0.20;;;;;;;22.43;53.22;99980.75;4938818;29;20027;-90
2023/10/17 11:24:20;;;;;;;0.20;0.20;;;;;;;22.00;54.38;99980.28;4938723;29;20065;-87
2023/10/17 11:26:45;;;;;;;0.20;0.20;;;;;;;22.03;55.82;99996.41;4955658;28;20122;-87
2023/10/17 11:29:12;;;;;;;0.20;0.20;;;;;;;22.08;57.16;99995.88;4974848;28;20062;-88
2023/10/17 11:31:41;;;;;;;0.20;0.20;;;;;;;21.94;57.18;99971.53;4977649;28;20030;-88
2023/10/17 11:34:16;;;;;;;0.20;0.20;;;;;;;21.96;56.28;99995.38;4977408;28;20022;-88
2023/10/17 11:36:51;;;;;;;0.20;0.20;;;;;;;21.68;56.06;100005.41;4977065;28;20088;-91
2023/10/17 11:39:18;;;;;;;0.20;0.20;;;;;;;21.60;57.08;100006.03;4977663;28;20521;-91
2023/10/17 11:41:54;;;;;;;0.20;0.20;;;;;;;21.52;57.72;99994.09;4977641;28;20133;-90
2023/10/17 11:44:23;;;;;;;0.20;0.20;;;;;;;21.49;56.88;99994.16;4977042;28;20030;-88
2023/10/17 11:47:01;;;;;;;0.20;0.20;;;;;;;21.59;56.04;99988.25;4977222;28;20177;-89
2023/10/17 11:49:31;;;;;;;0.20;0.20;;;;;;;21.69;58.06;99984.34;4977097;28;20037;-88
2023/10/17 11:52:04;;;;;;;0.20;0.20;;;;;;;21.57;58.21;99992.75;4981281;28;20101;-89
2023/10/17 11:54:30;;;;;;;;;;;;;;;21.78;58.25;99980.06;4995499;28;20116;-89
2023/10/17 11:57:07;;;;;;;0.20;0.20;;;;;;;21.40;58.41;99974.97;4958349;28;20408;-89
2023/10/17 11:59:33;;;;;;;0.20;0.20;;;;;;;21.59;58.49;99976.91;4975038;28;20039;-89
2023/10/17 12:02:02;;;;;;;0.20;0.20;;;;;;;21.40;58.26;99958.00;4957445;28;20041;-89
2023/10/17 12:04:27;;;;;;;0.20;0.20;;;;;;;21.25;58.63;99962.38;4989274;28;20048;-89
2023/10/17 12:06:53;;;;;;;0.28;0.28;;;;;;;21.44;58.57;99948.16;4985900;28;20454;-88
2023/10/17 12:09:22;;;;;;;0.20;0.20;;;;;;;21.45;58.64;99949.75;4976379;28;20113;-89
2023/10/17 12:11:53;;;;;;;0.20;0.20;;;;;;;21.35;58.23;99959.31;4993921;28;20022;-92
2023/10/17 12:14:23;;;;;;;0.20;0.20;;;;;;;21.38;58.91;99949.16;4977542;28;20022;-89
2023/10/17 12:16:58;;;;;;;0.20;0.20;;;;;;;21.49;57.38;99966.66;4969038;28;20019;-91
2023/10/17 12:19:26;;;;;;;0.20;0.20;;;;;;;21.27;58.21;99971.22;4954031;29;20086;-88
2023/10/17 12:22:00;;;;;;;0.20;0.20;;;;;;;21.26;59.31;99967.59;4954473;29;20031;-89
2023/10/17 12:24:28;;;;;;;0.20;0.20;;;;;;;21.48;58.27;99948.09;4953868;28;20476;-88
2023/10/17 12:26:57;;;;;;;0.20;0.20;;;;;;;21.61;57.50;99979.28;4951498;29;20027;-88
2023/10/17 12:29:25;;;;;;;0.20;0.20;;;;;;;20.97;58.86;99952.53;4938504;29;20037;-90
2023/10/17 12:31:55;;;;;;;0.20;0.20;;;;;;;21.18;58.89;99958.47;4938660;29;20038;-89
2023/10/17 12:34:20;;;;;;;0.20;0.20;;;;;;;21.04;57.55;99955.19;4937300;29;20027;-89
2023/10/17 12:36:46;;;;;;;0.20;0.20;;;;;;;21.04;57.96;99958.00;4938614;29;20030;-89
2023/10/17 12:39:17;;;;;;;0.20;0.20;;;;;;;21.42;58.19;99978.97;4957037;28;20458;-89
2023/10/17 12:41:45;;;;;;;0.20;0.20;;;;;;;21.34;57.20;99960.56;4957099;28;20037;-89
2023/10/17 12:44:12;;;;;;;0.20;0.20;;;;;;;21.53;55.98;99975.06;4956822;28;20101;-89
2023/10/17 12:46:38;;;;;;;0.20;0.20;;;;;;;21.29;57.24;99963.88;4957194;28;20030;-88
2023/10/17 12:49:03;;;;;;;0.20;0.20;;;;;;;20.99;58.54;99956.53;4974786;28;20042;-90
2023/10/17 12:51:29;;;;;;;0.20;0.20;;;;;;;21.25;58.32;99973.69;4957408;28;20033;-89
2023/10/17 12:53:54;;;;;;;0.20;0.20;;;;;;;21.36;58.29;99975.06;4973924;28;20031;-88
2023/10/17 12:56:20;;;;;;;0.20;0.20;;;;;;;21.52;58.04;99976.28;4956829;28;20031;-89
2023/10/17 12:58:49;;;;;;;0.20;0.20;;;;;;;21.51;57.12;99963.38;4956433;28;20121;-89
2023/10/17 13:01:14;;;;;;;0.20;0.20;;;;;;;21.53;56.79;99972.25;4973881;28;20051;-88
2023/10/17 13:03:40;;;;;;;0.20;0.20;;;;;;;21.86;56.15;99973.78;4956048;28;20126;-87
2023/10/17 13:06:06;;;;;;;0.20;0.20;;;;;;;21.75;57.07;99950.63;4980011;28;20105;-88
2023/10/17 13:08:32;;;;;;;0.20;0.20;;;;;;;21.85;56.06;99972.19;4994500;28;20438;-88
2023/10/17 13:10:59;;;;;;;0.20;0.20;;;;;;;21.77;56.24;99976.44;4995430;28;20237;-88
2023/10/17 13:13:25;;;;;;;0.20;0.20;;;;;;;21.67;55.63;99971.84;4975212;28;20037;-88
2023/10/17 13:15:53;;;;;;;0.20;0.20;;;;;;;21.92;55.63;99949.34;4992506;28;20490;-87
2023/10/17 13:18:19;;;;;;;0.20;0.20;;;;;;;21.78;55.27;99955.38;4974852;28;20042;-88
2023/10/17 13:20:50;;;;;;;0.20;0.20;;;;;;;21.82;55.61;99967.41;4975226;28;20026;-88
2023/10/17 13:23:17;;;;;;;0.20;0.20;;;;;;;21.78;55.71;99961.03;4992537;28;20030;-88
2023/10/17 13:25:43;;;;;;;0.20;0.20;;;;;;;21.90;55.98;99966.00;4974868;28;20061;-88
2023/10/17 13:28:10;;;;;;;0.20;0.20;;;;;;;21.91;55.55;99955.47;4992367;28;20023;-87
2023/10/17 13:30:35;;;;;;;0.20;0.20;;;;;;;21.75;55.08;99955.50;4979467;28;20444;-88
2023/10/17 13:33:01;;;;;;;0.20;0.20;;;;;;;21.70;55.94;99954.00;4994653;28;20021;-88
2023/10/17 13:35:28;;;;;;;0.20;0.20;;;;;;;22.01;55.73;99973.41;4994582;28;20033;-88
2023/10/17 13:37:54;;;;;;;0.20;0.20;;;;;;;22.09;55.13;99958.59;4994458;28;20026;-87
2023/10/17 13:40:21;;;;;;;0.20;0.20;;;;;;;22.02;54.85;99952.34;4982812;28;20030;-88
2023/10/17 13:42:52;;;;;;;0.20;0.20;;;;;;;21.88;55.16;99959.16;4992382;28;20390;-88
2023/10/17 13:45:21;;;;;;;0.20;0.20;;;;;;;21.96;55.85;99972.72;4992176;28;20561;-88
2023/10/17 13:47:48;;;;;;;0.20;0.20;;;;;;;22.04;55.89;99969.66;4974824;28;20505;-88
2023/10/17 13:50:15;;;;;;;0.20;0.20;;;;;;;21.90;55.07;99951.03;4975050;28;20058;-88
2023/10/17 13:52:41;;;;;;;0.20;0.20;;;;;;;21.70;55.23;99925.69;4974731;28;20121;-88
2023/10/17 13:55:14;;;;;;;0.20;0.20;;;;;;;21.76;54.87;99957.88;4992232;28;20021;-89
2023/10/17 13:57:42;;;;;;;0.20;0.20;;;;;;;21.89;55.63;99961.56;4974517;28;20029;-88
2023/10/17 14:00:09;;;;;;;0.20;0.20;;;;;;;21.63;54.96;99937.19;5011488;28;20481;-88
2023/10/17 14:02:35;;;;;;;0.20;0.20;;;;;;;21.71;54.88;99947.09;4994117;28;20069;-88
2023/10/17 14:05:01;;;;;;;0.20;0.20;;;;;;;21.67;55.64;99954.88;4994278;28;20661;-89
2023/10/17 14:07:27;;;;;;;0.20;0.20;;;;;;;21.62;55.86;99932.75;5011362;28;20433;-88
2023/10/17 14:09:55;;;;;;;0.20;0.20;;;;;;;21.77;55.39;99939.63;5003556;28;20034;-88
2023/10/17 14:12:21;;;;;;;0.20;0.20;;;;;;;21.81;56.08;99960.16;4974597;28;20529;-88
2023/10/17 14:14:47;;;;;;;0.20;0.20;;;;;;;21.69;56.64;99936.22;4974984;28;20037;-87
2023/10/17 14:17:12;;;;;;;0.20;0.20;;;;;;;21.89;56.27;99955.09;4975977;28;20031;-87
2023/10/17 14:19:44;;;;;;;0.20;0.20;;;;;;;21.57;57.78;99950.28;4991625;28;20026;-87
2023/10/17 14:27:20;;;;;;;0.20;0.20;;;;;;;21.40;56.56;99969.31;4991852;28;20516;-88
2023/10/17 14:29:47;;;;;;;0.20;0.20;;;;;;;21.01;56.96;99945.56;4974750;28;20027;-89
2023/10/17 14:32:15;;;;;;;0.20;0.20;;;;;;;20.96;59.12;99962.25;4974263;28;20030;-87
2023/10/17 14:34:41;;;;;;;0.20;0.20;;;;;;;20.80;59.79;99958.16;4974240;28;20505;-88
2023/10/17 14:37:07;;;;;;;0.20;0.20;;;;;;;20.77;59.52;99959.03;4993279;28;20180;-87
2023/10/17 14:39:32;;;;;;;0.20;0.20;;;;;;;20.48;59.86;99927.78;4970914;28;20475;-89
2023/10/17 14:41:58;;;;;;;0.20;0.20;;;;;;;20.72;59.72;99947.44;4956092;28;20178;-88
2023/10/17 14:44:24;;;;;;;0.20;0.20;;;;;;;20.66;60.00;99944.34;4954788;28;20041;-87
2023/10/17 14:46:52;;;;;;;0.20;0.20;;;;;;;20.78;59.64;99971.16;4972207;28;20054;-87
2023/10/17 14:49:18;;;;;;;0.20;0.20;;;;;;;20.64;59.49;99947.59;4955061;28;20110;-87
2023/10/17 14:51:44;;;;;;;0.20;0.20;;;;;;;20.51;60.36;99948.72;4938901;28;20069;-86
2023/10/17 14:54:09;;;;;;;0.20;0.20;;;;;;;20.39;60.24;99952.97;4954803;28;20027;-87
2023/10/17 14:56:36;;;;;;;0.20;0.20;;;;;;;20.43;60.72;99956.50;4955368;28;20030;-87
2023/10/17 14:59:01;;;;;;;0.20;0.20;;;;;;;20.64;61.33;99963.78;4993564;28;20032;-86
2023/10/17 15:01:27;;;;;;;0.20;0.20;;;;;;;20.56;60.57;99951.00;4994686;28;20108;-86
2023/10/17 15:03:54;;;;;;;0.20;0.20;;;;;;;20.53;60.67;99954.72;4994834;28;20524;-86
2023/10/17 15:06:21;;;;;;;0.20;0.20;;;;;;;20.35;61.79;99955.88;4994915;28;20047;-87
2023/10/17 15:08:47;;;;;;;0.20;0.20;;;;;;;20.38;62.46;99969.13;4977489;28;20030;-87
2023/10/17 15:11:12;;;;;;;0.20;0.20;;;;;;;20.31;62.43;99946.69;4994845;28;20084;-87
2023/10/17 15:13:38;;;;;;;0.20;0.20;;;;;;;20.24;62.55;99951.66;4995237;28;20093;-88
2023/10/17 15:16:16;;;;;;;0.20;0.20;;;;;;;20.26;63.18;99961.31;4995033;28;20022;-88
2023/10/17 15:18:42;;;;;;;0.20;0.20;;;;;;;20.38;63.91;99974.78;4994956;28;20118;-87
2023/10/17 15:21:08;;;;;;;0.20;0.20;;;;;;;20.20;63.46;99945.31;4977564;28;20069;-87
2023/10/17 15:23:41;;;;;;;0.20;0.20;;;;;;;20.17;63.28;99940.50;4995130;28;20046;-87
2023/10/17 15:26:10;;;;;;;0.20;0.20;;;;;;;20.42;64.21;99975.50;4994975;28;20435;-87
2023/10/17 15:28:36;;;;;;;0.20;0.20;;;;;;;20.51;65.10;99979.81;4977453;28;20033;-87
2023/10/17 15:31:08;;;;;;;0.20;0.20;;;;;;;20.60;63.74;99975.16;4977395;28;20026;-89
2023/10/17 15:33:35;;;;;;;0.20;0.20;;;;;;;20.53;65.21;99971.69;4977497;28;20022;-87